sensor_id;sensor_type;location;lat;lon;timestamp;P1;durP1;ratioP1;P2;durP2;ratioP2
52798;SDS011;38667;42.872;74.622;2023-04-07T00:02:21;56.80;;;16.33;;
52798;SDS011;38667;42.872;74.622;2023-04-07T00:04:47;45.30;;;15.43;;
52798;SDS011;38667;42.872;74.622;2023-04-07T00:07:14;54.08;;;17.30;;
52798;SDS011;38667;42.872;74.622;2023-04-07T00:09:40;46.80;;;16.85;;
52798;SDS011;38667;42.872;74.622;2023-04-07T00:12:06;40.65;;;15.15;;
52798;SDS011;38667;42.872;74.622;2023-04-07T00:14:34;43.60;;;15.48;;
52798;SDS011;38667;42.872;74.622;2023-04-07T00:17:01;44.88;;;14.13;;
52798;SDS011;38667;42.872;74.622;2023-04-07T00:19:27;43.92;;;13.00;;
52798;SDS011;38667;42.872;74.622;2023-04-07T00:21:53;34.20;;;10.50;;
52798;SDS011;38667;42.872;74.622;2023-04-07T00:24:19;29.00;;;10.80;;
52798;SDS011;38667;42.872;74.622;2023-04-07T00:26:46;38.08;;;10.02;;
52798;SDS011;38667;42.872;74.622;2023-04-07T00:29:12;28.92;;;8.95;;
52798;SDS011;38667;42.872;74.622;2023-04-07T00:31:40;23.70;;;7.35;;
52798;SDS011;38667;42.872;74.622;2023-04-07T00:34:06;26.48;;;7.00;;
52798;SDS011;38667;42.872;74.622;2023-04-07T00:36:33;21.85;;;6.88;;
52798;SDS011;38667;42.872;74.622;2023-04-07T00:38:59;18.50;;;6.85;;
52798;SDS011;38667;42.872;74.622;2023-04-07T00:41:25;24.83;;;6.82;;
52798;SDS011;38667;42.872;74.622;2023-04-07T00:43:51;19.40;;;6.47;;
52798;SDS011;38667;42.872;74.622;2023-04-07T00:46:18;25.00;;;6.70;;
52798;SDS011;38667;42.872;74.622;2023-04-07T00:48:48;23.35;;;6.13;;
52798;SDS011;38667;42.872;74.622;2023-04-07T00:51:15;16.88;;;5.30;;
52798;SDS011;38667;42.872;74.622;2023-04-07T00:53:42;19.42;;;6.18;;
52798;SDS011;38667;42.872;74.622;2023-04-07T00:56:08;18.75;;;5.43;;
52798;SDS011;38667;42.872;74.622;2023-04-07T00:58:35;24.67;;;5.68;;
52798;SDS011;38667;42.872;74.622;2023-04-07T01:01:02;22.90;;;6.43;;
52798;SDS011;38667;42.872;74.622;2023-04-07T01:03:33;19.60;;;4.75;;
52798;SDS011;38667;42.872;74.622;2023-04-07T01:06:15;16.02;;;4.85;;
52798;SDS011;38667;42.872;74.622;2023-04-07T01:08:47;20.42;;;4.75;;
52798;SDS011;38667;42.872;74.622;2023-04-07T01:11:19;14.45;;;4.97;;
52798;SDS011;38667;42.872;74.622;2023-04-07T01:13:50;22.08;;;4.82;;
52798;SDS011;38667;42.872;74.622;2023-04-07T01:16:20;19.08;;;5.20;;
52798;SDS011;38667;42.872;74.622;2023-04-07T01:18:51;11.88;;;4.72;;
52798;SDS011;38667;42.872;74.622;2023-04-07T01:21:21;16.80;;;4.55;;
52798;SDS011;38667;42.872;74.622;2023-04-07T01:23:57;15.93;;;4.95;;
52798;SDS011;38667;42.872;74.622;2023-04-07T01:26:30;15.55;;;5.18;;
52798;SDS011;38667;42.872;74.622;2023-04-07T01:31:59;19.25;;;5.13;;
52798;SDS011;38667;42.872;74.622;2023-04-07T01:34:30;13.82;;;4.60;;
52798;SDS011;38667;42.872;74.622;2023-04-07T01:36:56;21.58;;;5.47;;
52798;SDS011;38667;42.872;74.622;2023-04-07T01:39:25;18.88;;;5.40;;
52798;SDS011;38667;42.872;74.622;2023-04-07T01:41:52;22.50;;;6.28;;
52798;SDS011;38667;42.872;74.622;2023-04-07T01:44:19;22.20;;;5.82;;
52798;SDS011;38667;42.872;74.622;2023-04-07T01:46:46;17.45;;;6.50;;
52798;SDS011;38667;42.872;74.622;2023-04-07T01:49:15;14.95;;;5.50;;
52798;SDS011;38667;42.872;74.622;2023-04-07T01:51:42;17.80;;;5.88;;
52798;SDS011;38667;42.872;74.622;2023-04-07T01:54:10;21.60;;;5.35;;
52798;SDS011;38667;42.872;74.622;2023-04-07T01:56:36;29.55;;;6.90;;
52798;SDS011;38667;42.872;74.622;2023-04-07T01:59:05;24.88;;;7.18;;
52798;SDS011;38667;42.872;74.622;2023-04-07T02:01:32;22.20;;;6.50;;
52798;SDS011;38667;42.872;74.622;2023-04-07T02:04:01;17.95;;;5.45;;
52798;SDS011;38667;42.872;74.622;2023-04-07T02:06:38;24.00;;;5.57;;
52798;SDS011;38667;42.872;74.622;2023-04-07T02:09:09;28.25;;;6.30;;
52798;SDS011;38667;42.872;74.622;2023-04-07T02:11:37;25.98;;;5.63;;
52798;SDS011;38667;42.872;74.622;2023-04-07T02:14:06;22.85;;;6.47;;
52798;SDS011;38667;42.872;74.622;2023-04-07T02:16:34;22.55;;;6.15;;
52798;SDS011;38667;42.872;74.622;2023-04-07T02:19:01;22.95;;;6.70;;
52798;SDS011;38667;42.872;74.622;2023-04-07T02:21:28;19.73;;;6.10;;
52798;SDS011;38667;42.872;74.622;2023-04-07T02:24:01;21.98;;;6.53;;
52798;SDS011;38667;42.872;74.622;2023-04-07T02:26:32;22.13;;;6.22;;
52798;SDS011;38667;42.872;74.622;2023-04-07T02:28:59;21.58;;;6.60;;
52798;SDS011;38667;42.872;74.622;2023-04-07T02:31:25;23.33;;;6.50;;
52798;SDS011;38667;42.872;74.622;2023-04-07T02:33:51;29.60;;;6.10;;
52798;SDS011;38667;42.872;74.622;2023-04-07T02:36:17;25.25;;;6.00;;
52798;SDS011;38667;42.872;74.622;2023-04-07T02:38:44;27.90;;;6.50;;
52798;SDS011;38667;42.872;74.622;2023-04-07T02:41:12;24.50;;;5.95;;
52798;SDS011;38667;42.872;74.622;2023-04-07T02:43:38;27.65;;;6.68;;
52798;SDS011;38667;42.872;74.622;2023-04-07T02:46:05;21.73;;;5.90;;
52798;SDS011;38667;42.872;74.622;2023-04-07T02:48:31;20.45;;;5.55;;
52798;SDS011;38667;42.872;74.622;2023-04-07T02:50:57;21.40;;;5.07;;
52798;SDS011;38667;42.872;74.622;2023-04-07T02:53:24;25.27;;;6.15;;
52798;SDS011;38667;42.872;74.622;2023-04-07T02:55:50;21.10;;;5.35;;
52798;SDS011;38667;42.872;74.622;2023-04-07T02:58:18;22.13;;;5.60;;
52798;SDS011;38667;42.872;74.622;2023-04-07T03:00:44;17.15;;;5.55;;
52798;SDS011;38667;42.872;74.622;2023-04-07T03:03:12;25.95;;;6.18;;
52798;SDS011;38667;42.872;74.622;2023-04-07T03:05:39;25.60;;;6.72;;
52798;SDS011;38667;42.872;74.622;2023-04-07T03:08:05;20.35;;;6.47;;
52798;SDS011;38667;42.872;74.622;2023-04-07T03:10:31;24.52;;;7.03;;
52798;SDS011;38667;42.872;74.622;2023-04-07T03:12:58;25.90;;;6.68;;
52798;SDS011;38667;42.872;74.622;2023-04-07T03:15:26;26.70;;;6.80;;
52798;SDS011;38667;42.872;74.622;2023-04-07T03:17:52;24.98;;;6.30;;
52798;SDS011;38667;42.872;74.622;2023-04-07T03:20:18;24.33;;;6.90;;
52798;SDS011;38667;42.872;74.622;2023-04-07T03:22:45;28.83;;;8.25;;
52798;SDS011;38667;42.872;74.622;2023-04-07T03:25:11;26.00;;;8.07;;
52798;SDS011;38667;42.872;74.622;2023-04-07T03:27:38;26.20;;;8.02;;
52798;SDS011;38667;42.872;74.622;2023-04-07T03:30:05;31.08;;;9.00;;
52798;SDS011;38667;42.872;74.622;2023-04-07T03:32:33;27.42;;;8.93;;
52798;SDS011;38667;42.872;74.622;2023-04-07T03:35:00;30.15;;;11.15;;
52798;SDS011;38667;42.872;74.622;2023-04-07T03:37:27;30.42;;;10.55;;
52798;SDS011;38667;42.872;74.622;2023-04-07T03:39:53;34.03;;;13.02;;
52798;SDS011;38667;42.872;74.622;2023-04-07T03:42:20;34.47;;;13.43;;
52798;SDS011;38667;42.872;74.622;2023-04-07T03:44:46;34.83;;;13.68;;
52798;SDS011;38667;42.872;74.622;2023-04-07T03:47:12;33.92;;;14.10;;
52798;SDS011;38667;42.872;74.622;2023-04-07T03:49:40;31.13;;;12.18;;
52798;SDS011;38667;42.872;74.622;2023-04-07T03:52:07;38.88;;;13.48;;
52798;SDS011;38667;42.872;74.622;2023-04-07T03:54:33;31.75;;;14.05;;
52798;SDS011;38667;42.872;74.622;2023-04-07T03:56:59;27.90;;;12.05;;
52798;SDS011;38667;42.872;74.622;2023-04-07T03:59:26;25.65;;;13.30;;
52798;SDS011;38667;42.872;74.622;2023-04-07T04:01:53;35.30;;;13.73;;
52798;SDS011;38667;42.872;74.622;2023-04-07T04:04:19;26.77;;;11.70;;
52798;SDS011;38667;42.872;74.622;2023-04-07T04:06:47;33.33;;;13.27;;
52798;SDS011;38667;42.872;74.622;2023-04-07T04:09:13;29.83;;;13.05;;
52798;SDS011;38667;42.872;74.622;2023-04-07T04:11:40;36.15;;;12.13;;
52798;SDS011;38667;42.872;74.622;2023-04-07T04:14:06;34.15;;;12.55;;
52798;SDS011;38667;42.872;74.622;2023-04-07T04:16:32;29.50;;;12.40;;
52798;SDS011;38667;42.872;74.622;2023-04-07T04:18:59;31.35;;;11.98;;
52798;SDS011;38667;42.872;74.622;2023-04-07T04:21:25;32.58;;;11.93;;
52798;SDS011;38667;42.872;74.622;2023-04-07T04:23:53;26.92;;;11.18;;
52798;SDS011;38667;42.872;74.622;2023-04-07T04:26:19;34.65;;;11.00;;
52798;SDS011;38667;42.872;74.622;2023-04-07T04:28:46;30.23;;;11.57;;
52798;SDS011;38667;42.872;74.622;2023-04-07T04:31:12;36.22;;;10.63;;
52798;SDS011;38667;42.872;74.622;2023-04-07T04:33:38;30.20;;;10.27;;
52798;SDS011;38667;42.872;74.622;2023-04-07T04:36:05;31.88;;;10.60;;
52798;SDS011;38667;42.872;74.622;2023-04-07T04:38:32;37.00;;;9.57;;
52798;SDS011;38667;42.872;74.622;2023-04-07T04:40:59;32.97;;;8.95;;
52798;SDS011;38667;42.872;74.622;2023-04-07T04:43:26;21.80;;;8.45;;
52798;SDS011;38667;42.872;74.622;2023-04-07T04:45:52;24.90;;;10.00;;
52798;SDS011;38667;42.872;74.622;2023-04-07T04:48:18;20.33;;;8.18;;
52798;SDS011;38667;42.872;74.622;2023-04-07T04:50:45;27.25;;;9.27;;
52798;SDS011;38667;42.872;74.622;2023-04-07T04:53:11;25.95;;;8.18;;
52798;SDS011;38667;42.872;74.622;2023-04-07T04:55:37;25.17;;;7.70;;
52798;SDS011;38667;42.872;74.622;2023-04-07T04:58:05;27.05;;;7.28;;
52798;SDS011;38667;42.872;74.622;2023-04-07T05:00:32;22.08;;;7.00;;
52798;SDS011;38667;42.872;74.622;2023-04-07T05:02:58;19.17;;;6.97;;
52798;SDS011;38667;42.872;74.622;2023-04-07T05:05:24;25.38;;;7.07;;
52798;SDS011;38667;42.872;74.622;2023-04-07T05:07:51;23.60;;;6.22;;
52798;SDS011;38667;42.872;74.622;2023-04-07T05:10:17;14.50;;;5.70;;
52798;SDS011;38667;42.872;74.622;2023-04-07T05:12:43;18.10;;;5.72;;
52798;SDS011;38667;42.872;74.622;2023-04-07T05:15:11;26.85;;;6.90;;
52798;SDS011;38667;42.872;74.622;2023-04-07T05:17:38;17.58;;;5.60;;
52798;SDS011;38667;42.872;74.622;2023-04-07T05:20:04;24.45;;;6.28;;
52798;SDS011;38667;42.872;74.622;2023-04-07T05:22:33;27.70;;;6.13;;
52798;SDS011;38667;42.872;74.622;2023-04-07T05:24:59;15.00;;;5.40;;
52798;SDS011;38667;42.872;74.622;2023-04-07T05:27:26;23.00;;;6.15;;
52798;SDS011;38667;42.872;74.622;2023-04-07T05:29:52;29.10;;;6.60;;
52798;SDS011;38667;42.872;74.622;2023-04-07T05:32:20;20.48;;;5.90;;
52798;SDS011;38667;42.872;74.622;2023-04-07T05:34:46;19.05;;;6.00;;
52798;SDS011;38667;42.872;74.622;2023-04-07T05:37:12;23.52;;;6.22;;
52798;SDS011;38667;42.872;74.622;2023-04-07T05:39:39;16.52;;;5.07;;
52798;SDS011;38667;42.872;74.622;2023-04-07T05:42:05;30.30;;;5.97;;
52798;SDS011;38667;42.872;74.622;2023-04-07T05:44:32;23.48;;;6.35;;
52798;SDS011;38667;42.872;74.622;2023-04-07T05:46:58;17.77;;;5.85;;
52798;SDS011;38667;42.872;74.622;2023-04-07T05:49:26;21.95;;;5.43;;
52798;SDS011;38667;42.872;74.622;2023-04-07T05:51:52;18.17;;;5.72;;
52798;SDS011;38667;42.872;74.622;2023-04-07T05:54:18;22.08;;;6.13;;
52798;SDS011;38667;42.872;74.622;2023-04-07T05:56:45;21.77;;;6.20;;
52798;SDS011;38667;42.872;74.622;2023-04-07T05:59:11;17.55;;;5.35;;
52798;SDS011;38667;42.872;74.622;2023-04-07T06:01:37;21.38;;;5.30;;
52798;SDS011;38667;42.872;74.622;2023-04-07T06:04:04;15.23;;;5.32;;
52798;SDS011;38667;42.872;74.622;2023-04-07T06:06:32;15.07;;;4.80;;
52798;SDS011;38667;42.872;74.622;2023-04-07T06:08:59;26.77;;;5.60;;
52798;SDS011;38667;42.872;74.622;2023-04-07T06:11:25;21.85;;;5.88;;
52798;SDS011;38667;42.872;74.622;2023-04-07T06:13:51;17.20;;;6.28;;
52798;SDS011;38667;42.872;74.622;2023-04-07T06:16:17;17.80;;;5.97;;
52798;SDS011;38667;42.872;74.622;2023-04-07T06:18:44;26.75;;;6.53;;
52798;SDS011;38667;42.872;74.622;2023-04-07T06:21:10;26.80;;;6.30;;
52798;SDS011;38667;42.872;74.622;2023-04-07T06:23:38;23.73;;;5.93;;
52798;SDS011;38667;42.872;74.622;2023-04-07T06:26:04;20.63;;;5.03;;
52798;SDS011;38667;42.872;74.622;2023-04-07T06:28:34;20.45;;;5.30;;
52798;SDS011;38667;42.872;74.622;2023-04-07T06:31:00;24.90;;;5.50;;
52798;SDS011;38667;42.872;74.622;2023-04-07T06:33:27;20.42;;;5.82;;
52798;SDS011;38667;42.872;74.622;2023-04-07T06:35:53;20.48;;;6.03;;
52798;SDS011;38667;42.872;74.622;2023-04-07T06:38:19;21.40;;;5.07;;
52798;SDS011;38667;42.872;74.622;2023-04-07T06:40:47;21.45;;;5.32;;
52798;SDS011;38667;42.872;74.622;2023-04-07T06:43:14;15.80;;;4.65;;
52798;SDS011;38667;42.872;74.622;2023-04-07T06:45:40;13.60;;;4.45;;
52798;SDS011;38667;42.872;74.622;2023-04-07T06:48:06;18.02;;;4.93;;
52798;SDS011;38667;42.872;74.622;2023-04-07T06:50:33;14.25;;;4.43;;
52798;SDS011;38667;42.872;74.622;2023-04-07T06:52:59;15.50;;;5.03;;
52798;SDS011;38667;42.872;74.622;2023-04-07T06:55:25;20.42;;;5.05;;
52798;SDS011;38667;42.872;74.622;2023-04-07T06:57:53;18.05;;;5.05;;
52798;SDS011;38667;42.872;74.622;2023-04-07T07:00:20;15.32;;;4.82;;
52798;SDS011;38667;42.872;74.622;2023-04-07T07:02:46;20.55;;;5.93;;
52798;SDS011;38667;42.872;74.622;2023-04-07T07:05:12;25.00;;;5.15;;
52798;SDS011;38667;42.872;74.622;2023-04-07T07:07:39;22.55;;;5.80;;
52798;SDS011;38667;42.872;74.622;2023-04-07T07:10:07;16.48;;;5.43;;
52798;SDS011;38667;42.872;74.622;2023-04-07T07:12:33;24.83;;;5.40;;
52798;SDS011;38667;42.872;74.622;2023-04-07T07:15:01;22.10;;;4.82;;
52798;SDS011;38667;42.872;74.622;2023-04-07T07:17:28;18.27;;;4.97;;
52798;SDS011;38667;42.872;74.622;2023-04-07T07:19:55;20.65;;;4.32;;
52798;SDS011;38667;42.872;74.622;2023-04-07T07:22:21;21.40;;;5.05;;
52798;SDS011;38667;42.872;74.622;2023-04-07T07:24:47;20.33;;;5.40;;
52798;SDS011;38667;42.872;74.622;2023-04-07T07:27:14;21.10;;;5.50;;
52798;SDS011;38667;42.872;74.622;2023-04-07T07:29:40;26.60;;;5.88;;
52798;SDS011;38667;42.872;74.622;2023-04-07T07:32:08;20.80;;;5.22;;
52798;SDS011;38667;42.872;74.622;2023-04-07T07:34:34;25.15;;;5.70;;
52798;SDS011;38667;42.872;74.622;2023-04-07T07:37:00;23.60;;;6.18;;
52798;SDS011;38667;42.872;74.622;2023-04-07T07:39:27;55.60;;;7.68;;
52798;SDS011;38667;42.872;74.622;2023-04-07T07:41:53;28.98;;;5.82;;
52798;SDS011;38667;42.872;74.622;2023-04-07T07:44:20;55.92;;;5.60;;
52798;SDS011;38667;42.872;74.622;2023-04-07T07:46:46;27.20;;;4.85;;
52798;SDS011;38667;42.872;74.622;2023-04-07T07:49:14;22.75;;;4.55;;
52798;SDS011;38667;42.872;74.622;2023-04-07T07:51:40;35.58;;;5.25;;
52798;SDS011;38667;42.872;74.622;2023-04-07T07:54:07;43.88;;;5.90;;
52798;SDS011;38667;42.872;74.622;2023-04-07T07:56:33;34.22;;;5.22;;
52798;SDS011;38667;42.872;74.622;2023-04-07T07:59:00;24.98;;;4.47;;
52798;SDS011;38667;42.872;74.622;2023-04-07T08:01:26;42.22;;;5.50;;
52798;SDS011;38667;42.872;74.622;2023-04-07T08:03:52;42.20;;;5.60;;
52798;SDS011;38667;42.872;74.622;2023-04-07T08:06:20;31.52;;;5.25;;
52798;SDS011;38667;42.872;74.622;2023-04-07T08:08:46;92.15;;;7.60;;
52798;SDS011;38667;42.872;74.622;2023-04-07T08:11:13;52.15;;;6.30;;
52798;SDS011;38667;42.872;74.622;2023-04-07T08:13:39;38.70;;;5.95;;
52798;SDS011;38667;42.872;74.622;2023-04-07T08:16:06;41.38;;;6.55;;
52798;SDS011;38667;42.872;74.622;2023-04-07T08:18:32;36.35;;;6.00;;
52798;SDS011;38667;42.872;74.622;2023-04-07T08:20:58;46.65;;;7.93;;
52798;SDS011;38667;42.872;74.622;2023-04-07T08:23:26;46.75;;;8.57;;
52798;SDS011;38667;42.872;74.622;2023-04-07T08:25:53;32.42;;;7.30;;
52798;SDS011;38667;42.872;74.622;2023-04-07T08:28:19;87.30;;;8.68;;
52798;SDS011;38667;42.872;74.622;2023-04-07T08:30:45;116.80;;;11.80;;
52798;SDS011;38667;42.872;74.622;2023-04-07T08:33:12;139.20;;;12.60;;
52798;SDS011;38667;42.872;74.622;2023-04-07T08:35:38;138.32;;;11.60;;
52798;SDS011;38667;42.872;74.622;2023-04-07T08:38:04;75.18;;;8.55;;
52798;SDS011;38667;42.872;74.622;2023-04-07T08:40:33;63.50;;;7.32;;
52798;SDS011;38667;42.872;74.622;2023-04-07T08:42:59;82.35;;;7.78;;
52798;SDS011;38667;42.872;74.622;2023-04-07T08:45:29;37.40;;;6.25;;
52798;SDS011;38667;42.872;74.622;2023-04-07T08:47:57;45.33;;;6.68;;
52798;SDS011;38667;42.872;74.622;2023-04-07T08:50:28;42.97;;;5.93;;
52798;SDS011;38667;42.872;74.622;2023-04-07T08:52:56;41.58;;;5.13;;
52798;SDS011;38667;42.872;74.622;2023-04-07T08:55:27;45.78;;;5.32;;
52798;SDS011;38667;42.872;74.622;2023-04-07T08:57:55;31.05;;;5.00;;
52798;SDS011;38667;42.872;74.622;2023-04-07T09:00:22;30.40;;;5.35;;
52798;SDS011;38667;42.872;74.622;2023-04-07T09:02:49;27.10;;;5.82;;
52798;SDS011;38667;42.872;74.622;2023-04-07T09:05:16;26.38;;;5.95;;
52798;SDS011;38667;42.872;74.622;2023-04-07T09:07:43;22.98;;;5.28;;
52798;SDS011;38667;42.872;74.622;2023-04-07T09:10:09;26.85;;;6.38;;
52798;SDS011;38667;42.872;74.622;2023-04-07T09:12:36;23.80;;;5.07;;
52798;SDS011;38667;42.872;74.622;2023-04-07T09:15:04;22.40;;;5.03;;
52798;SDS011;38667;42.872;74.622;2023-04-07T09:17:32;24.10;;;4.65;;
52798;SDS011;38667;42.872;74.622;2023-04-07T09:19:58;27.15;;;4.47;;
52798;SDS011;38667;42.872;74.622;2023-04-07T09:22:35;26.23;;;4.80;;
52798;SDS011;38667;42.872;74.622;2023-04-07T09:25:11;19.05;;;4.72;;
52798;SDS011;38667;42.872;74.622;2023-04-07T09:27:38;18.13;;;4.88;;
52798;SDS011;38667;42.872;74.622;2023-04-07T09:30:13;22.35;;;5.40;;
52798;SDS011;38667;42.872;74.622;2023-04-07T09:32:40;22.50;;;5.35;;
52798;SDS011;38667;42.872;74.622;2023-04-07T09:35:06;19.10;;;5.18;;
52798;SDS011;38667;42.872;74.622;2023-04-07T09:37:33;21.80;;;5.65;;
52798;SDS011;38667;42.872;74.622;2023-04-07T09:40:01;13.23;;;4.95;;
52798;SDS011;38667;42.872;74.622;2023-04-07T09:42:27;19.30;;;5.28;;
52798;SDS011;38667;42.872;74.622;2023-04-07T09:44:54;21.13;;;5.85;;
52798;SDS011;38667;42.872;74.622;2023-04-07T09:47:26;20.70;;;5.97;;
52798;SDS011;38667;42.872;74.622;2023-04-07T09:49:52;21.45;;;5.20;;
52798;SDS011;38667;42.872;74.622;2023-04-07T09:52:21;26.83;;;5.68;;
52798;SDS011;38667;42.872;74.622;2023-04-07T09:54:49;16.55;;;4.90;;
52798;SDS011;38667;42.872;74.622;2023-04-07T09:57:17;18.55;;;5.60;;
52798;SDS011;38667;42.872;74.622;2023-04-07T09:59:45;17.90;;;5.40;;
52798;SDS011;38667;42.872;74.622;2023-04-07T10:02:12;24.65;;;4.95;;
52798;SDS011;38667;42.872;74.622;2023-04-07T10:04:40;17.85;;;4.88;;
52798;SDS011;38667;42.872;74.622;2023-04-07T10:07:07;18.15;;;4.60;;
52798;SDS011;38667;42.872;74.622;2023-04-07T10:09:33;13.20;;;3.92;;
52798;SDS011;38667;42.872;74.622;2023-04-07T10:12:00;10.15;;;4.20;;
52798;SDS011;38667;42.872;74.622;2023-04-07T10:14:27;8.57;;;3.70;;
52798;SDS011;38667;42.872;74.622;2023-04-07T10:16:56;14.20;;;4.45;;
52798;SDS011;38667;42.872;74.622;2023-04-07T10:19:23;13.70;;;3.63;;
52798;SDS011;38667;42.872;74.622;2023-04-07T10:21:56;13.07;;;3.70;;
52798;SDS011;38667;42.872;74.622;2023-04-07T10:24:32;13.73;;;3.35;;
52798;SDS011;38667;42.872;74.622;2023-04-07T10:27:09;6.82;;;3.60;;
52798;SDS011;38667;42.872;74.622;2023-04-07T10:29:39;11.07;;;3.65;;
52798;SDS011;38667;42.872;74.622;2023-04-07T10:32:07;7.93;;;3.50;;
52798;SDS011;38667;42.872;74.622;2023-04-07T10:37:31;6.13;;;3.35;;
52798;SDS011;38667;42.872;74.622;2023-04-07T10:42:52;7.20;;;3.20;;
52798;SDS011;38667;42.872;74.622;2023-04-07T10:45:20;4.90;;;2.90;;
52798;SDS011;38667;42.872;74.622;2023-04-07T10:48:19;8.35;;;2.42;;
52798;SDS011;38667;42.872;74.622;2023-04-07T10:50:49;6.28;;;3.03;;
52798;SDS011;38667;42.872;74.622;2023-04-07T10:57:10;5.85;;;2.42;;
52798;SDS011;38667;42.872;74.622;2023-04-07T10:59:37;7.75;;;2.55;;
52798;SDS011;38667;42.872;74.622;2023-04-07T11:04:56;8.20;;;2.67;;
52798;SDS011;38667;42.872;74.622;2023-04-07T11:07:41;13.95;;;3.67;;
52798;SDS011;38667;42.872;74.622;2023-04-07T11:10:10;8.00;;;3.30;;
52798;SDS011;38667;42.872;74.622;2023-04-07T11:12:38;13.38;;;3.85;;
52798;SDS011;38667;42.872;74.622;2023-04-07T11:20:47;19.10;;;5.25;;
52798;SDS011;38667;42.872;74.622;2023-04-07T11:23:15;15.80;;;5.88;;
52798;SDS011;38667;42.872;74.622;2023-04-07T11:25:43;12.80;;;5.63;;
52798;SDS011;38667;42.872;74.622;2023-04-07T11:28:12;11.48;;;5.32;;
52798;SDS011;38667;42.872;74.622;2023-04-07T11:30:44;14.75;;;6.07;;
52798;SDS011;38667;42.872;74.622;2023-04-07T11:33:15;19.58;;;6.43;;
52798;SDS011;38667;42.872;74.622;2023-04-07T11:35:49;10.85;;;6.50;;
52798;SDS011;38667;42.872;74.622;2023-04-07T11:38:16;10.07;;;6.18;;
52798;SDS011;38667;42.872;74.622;2023-04-07T11:40:43;15.55;;;6.80;;
52798;SDS011;38667;42.872;74.622;2023-04-07T11:43:19;14.95;;;7.30;;
52798;SDS011;38667;42.872;74.622;2023-04-07T11:48:28;18.48;;;8.73;;
52798;SDS011;38667;42.872;74.622;2023-04-07T11:50:55;19.80;;;8.35;;
52798;SDS011;38667;42.872;74.622;2023-04-07T11:53:25;13.57;;;8.43;;
52798;SDS011;38667;42.872;74.622;2023-04-07T11:55:58;20.83;;;9.80;;
52798;SDS011;38667;42.872;74.622;2023-04-07T11:58:26;16.10;;;9.02;;
52798;SDS011;38667;42.872;74.622;2023-04-07T12:00:53;22.08;;;10.43;;
52798;SDS011;38667;42.872;74.622;2023-04-07T12:03:19;19.83;;;10.07;;
52798;SDS011;38667;42.872;74.622;2023-04-07T12:05:46;19.52;;;10.85;;
52798;SDS011;38667;42.872;74.622;2023-04-07T12:08:12;18.67;;;8.77;;
52798;SDS011;38667;42.872;74.622;2023-04-07T12:10:39;19.75;;;11.20;;
52798;SDS011;38667;42.872;74.622;2023-04-07T12:13:05;21.00;;;12.48;;
52798;SDS011;38667;42.872;74.622;2023-04-07T12:15:34;25.17;;;12.65;;
52798;SDS011;38667;42.872;74.622;2023-04-07T12:18:00;20.45;;;11.23;;
52798;SDS011;38667;42.872;74.622;2023-04-07T12:20:27;17.75;;;9.93;;
52798;SDS011;38667;42.872;74.622;2023-04-07T12:22:53;27.63;;;12.45;;
52798;SDS011;38667;42.872;74.622;2023-04-07T12:25:19;16.30;;;8.52;;
52798;SDS011;38667;42.872;74.622;2023-04-07T12:27:48;21.65;;;11.02;;
52798;SDS011;38667;42.872;74.622;2023-04-07T12:30:14;19.58;;;13.27;;
52798;SDS011;38667;42.872;74.622;2023-04-07T12:32:43;14.57;;;8.25;;
52798;SDS011;38667;42.872;74.622;2023-04-07T12:35:09;18.73;;;8.95;;
52798;SDS011;38667;42.872;74.622;2023-04-07T12:37:36;14.38;;;8.10;;
52798;SDS011;38667;42.872;74.622;2023-04-07T12:40:02;19.55;;;11.77;;
52798;SDS011;38667;42.872;74.622;2023-04-07T12:42:29;14.30;;;9.18;;
52798;SDS011;38667;42.872;74.622;2023-04-07T12:44:55;12.52;;;7.40;;
52798;SDS011;38667;42.872;74.622;2023-04-07T12:47:22;12.27;;;6.15;;
52798;SDS011;38667;42.872;74.622;2023-04-07T12:49:50;8.40;;;5.47;;
52798;SDS011;38667;42.872;74.622;2023-04-07T12:52:16;13.18;;;6.22;;
52798;SDS011;38667;42.872;74.622;2023-04-07T12:54:43;11.10;;;6.53;;
52798;SDS011;38667;42.872;74.622;2023-04-07T12:57:09;10.50;;;7.15;;
52798;SDS011;38667;42.872;74.622;2023-04-07T12:59:35;12.10;;;6.15;;
52798;SDS011;38667;42.872;74.622;2023-04-07T13:02:02;6.30;;;4.80;;
52798;SDS011;38667;42.872;74.622;2023-04-07T13:04:28;12.88;;;7.25;;
52798;SDS011;38667;42.872;74.622;2023-04-07T13:06:56;11.23;;;6.43;;
52798;SDS011;38667;42.872;74.622;2023-04-07T13:09:23;8.70;;;5.07;;
52798;SDS011;38667;42.872;74.622;2023-04-07T13:11:49;9.00;;;5.80;;
52798;SDS011;38667;42.872;74.622;2023-04-07T13:14:16;14.38;;;5.25;;
52798;SDS011;38667;42.872;74.622;2023-04-07T13:16:42;40.00;;;22.90;;
52798;SDS011;38667;42.872;74.622;2023-04-07T13:19:08;42.50;;;24.55;;
52798;SDS011;38667;42.872;74.622;2023-04-07T13:21:35;41.03;;;24.08;;
52798;SDS011;38667;42.872;74.622;2023-04-07T13:24:03;44.60;;;25.08;;
52798;SDS011;38667;42.872;74.622;2023-04-07T13:26:29;38.58;;;25.67;;
52798;SDS011;38667;42.872;74.622;2023-04-07T13:28:55;40.28;;;24.27;;
52798;SDS011;38667;42.872;74.622;2023-04-07T13:31:22;35.67;;;24.33;;
52798;SDS011;38667;42.872;74.622;2023-04-07T13:33:48;41.95;;;26.63;;
52798;SDS011;38667;42.872;74.622;2023-04-07T13:36:14;44.75;;;27.95;;
52798;SDS011;38667;42.872;74.622;2023-04-07T13:38:41;53.28;;;33.22;;
52798;SDS011;38667;42.872;74.622;2023-04-07T13:41:08;48.55;;;30.52;;
52798;SDS011;38667;42.872;74.622;2023-04-07T13:43:35;52.60;;;30.88;;
52798;SDS011;38667;42.872;74.622;2023-04-07T13:46:01;56.33;;;32.50;;
52798;SDS011;38667;42.872;74.622;2023-04-07T13:48:27;48.13;;;29.30;;
52798;SDS011;38667;42.872;74.622;2023-04-07T13:50:54;48.58;;;29.33;;
52798;SDS011;38667;42.872;74.622;2023-04-07T13:53:20;50.70;;;26.60;;
52798;SDS011;38667;42.872;74.622;2023-04-07T13:55:46;50.75;;;28.92;;
52798;SDS011;38667;42.872;74.622;2023-04-07T13:58:14;50.25;;;28.60;;
52798;SDS011;38667;42.872;74.622;2023-04-07T14:00:41;50.03;;;26.98;;
52798;SDS011;38667;42.872;74.622;2023-04-07T14:03:07;49.60;;;27.23;;
52798;SDS011;38667;42.872;74.622;2023-04-07T14:05:33;46.88;;;26.42;;
52798;SDS011;38667;42.872;74.622;2023-04-07T14:08:00;51.67;;;29.38;;
52798;SDS011;38667;42.872;74.622;2023-04-07T14:10:26;51.95;;;31.55;;
52798;SDS011;38667;42.872;74.622;2023-04-07T14:12:52;52.85;;;29.60;;
52798;SDS011;38667;42.872;74.622;2023-04-07T14:15:20;45.40;;;27.27;;
52798;SDS011;38667;42.872;74.622;2023-04-07T14:17:47;60.85;;;34.70;;
52798;SDS011;38667;42.872;74.622;2023-04-07T14:20:13;52.15;;;30.88;;
52798;SDS011;38667;42.872;74.622;2023-04-07T14:22:39;65.50;;;36.15;;
52798;SDS011;38667;42.872;74.622;2023-04-07T14:25:06;47.08;;;28.52;;
52798;SDS011;38667;42.872;74.622;2023-04-07T14:27:32;56.30;;;34.60;;
52798;SDS011;38667;42.872;74.622;2023-04-07T14:29:58;50.50;;;32.65;;
52798;SDS011;38667;42.872;74.622;2023-04-07T14:32:27;38.47;;;23.55;;
52798;SDS011;38667;42.872;74.622;2023-04-07T14:34:53;39.63;;;25.35;;
52798;SDS011;38667;42.872;74.622;2023-04-07T14:37:20;37.75;;;22.80;;
52798;SDS011;38667;42.872;74.622;2023-04-07T14:39:46;52.40;;;26.65;;
52798;SDS011;38667;42.872;74.622;2023-04-07T14:42:12;48.58;;;29.67;;
52798;SDS011;38667;42.872;74.622;2023-04-07T14:44:38;47.38;;;28.85;;